»·PEaware :: SWA619 KPHX-KSAN

SWA619 :: KPHX-KSAN

FLIGHT INFORMATION

Flight Status: Arrived
Operator:
Southwest Airlines
More flights by this operator :: More flights under this callsign
Pilot: Anonymous 15452 (15452)
Aircraft: BOEING 737-200
(B732)
More flights by this aircraft type
Origin: KPHX Phoenix Sky Harbor Intl
United States
Destination: KSAN San Diego Intl-Lindbergh
United States
More flights between these airports :: More routes between these airports
Route: +MOBIE4 GBN J2 IPL BARET5
File this flight plan on PilotEdge
Remarks:
Altitude:
(Current/Filed)
26,000ft
Speed:
(Current/Filed)
450kts
Departed: 04-Feb-18 10:38 AM
Arrived: 04-Feb-18 11:41 AM
Distance/Time
Traveled:
264nm/1:03
Distance/Time
To Go:
Arrived

Flight Plot

Page will automatically refresh every two minutes.


Map Options




Map Legend


Flown Route
Filed Route
Departure Airport
Arrival Airport
Navaid (VOR, NDB)
Fix

Horizontal Profiles

Position Reports

Time Latitude Longitude Heading Altitude Ground
Speed
04-Feb-18 10:22 33.434064 -111.994776 89 1118ft 0kts
04-Feb-18 10:23 33.434064 -111.994776 89 1118ft 0kts
04-Feb-18 10:24 33.434064 -111.994776 89 1118ft 0kts
04-Feb-18 10:25 33.434064 -111.994776 89 1118ft 0kts
04-Feb-18 10:26 33.434064 -111.994776 89 1118ft 0kts
04-Feb-18 10:27 33.434064 -111.994776 89 1118ft 0kts
04-Feb-18 10:28 33.434064 -111.994776 89 1118ft 0kts
04-Feb-18 10:28 33.434064 -111.994776 89 1118ft 0kts
04-Feb-18 10:30 33.434064 -111.994776 89 1118ft 0kts
04-Feb-18 10:31 33.434064 -111.994776 89 1118ft 0kts
04-Feb-18 10:31 33.434064 -111.994776 89 1118ft 0kts
04-Feb-18 10:33 33.434064 -111.994776 89 1118ft 0kts
04-Feb-18 10:34 33.434064 -111.994776 89 1118ft 0kts
04-Feb-18 10:34 33.434064 -111.994776 89 1118ft 0kts
04-Feb-18 10:35 33.434064 -111.994772 90 1118ft 0kts
04-Feb-18 10:37 33.434129 -111.995460 134 1118ft 2kts
04-Feb-18 10:38 33.434348 -111.995557 180 1118ft 0kts
04-Feb-18 10:38 33.434348 -111.995557 180 1118ft 0kts
04-Feb-18 10:39 33.434348 -111.995557 180 1118ft 0kts
04-Feb-18 10:40 33.434348 -111.995557 180 1118ft 0kts
04-Feb-18 10:41 33.434343 -111.995557 180 1118ft 0kts
04-Feb-18 10:42 33.432629 -111.997685 242 1118ft 22kts
04-Feb-18 10:43 33.432153 -112.008002 269 1118ft 39kts
04-Feb-18 10:44 33.432156 -112.022307 269 1118ft 45kts
04-Feb-18 10:45 33.432122 -112.026646 248 1118ft 0kts
04-Feb-18 10:46 33.431967 -112.026876 213 1118ft 7kts
04-Feb-18 10:47 33.431055 -112.009725 90 1121ft 159kts
04-Feb-18 10:48 33.435721 -111.949800 84 4014ft 191kts
04-Feb-18 10:49 33.437019 -111.890073 104 7217ft 187kts
04-Feb-18 10:50 33.413846 -111.820351 109 8037ft 275kts
04-Feb-18 10:51 33.385381 -111.735058 109 8011ft 281kts
04-Feb-18 10:52 33.356433 -111.648364 109 8011ft 280kts
04-Feb-18 10:53 33.328154 -111.563715 109 8012ft 268kts
04-Feb-18 10:54 33.301088 -111.482127 109 8014ft 259kts
04-Feb-18 10:55 33.272884 -111.404750 133 8006ft 256kts
04-Feb-18 10:56 33.205953 -111.420315 233 10094ft 291kts
04-Feb-18 10:57 33.175950 -111.507062 259 12879ft 295kts
04-Feb-18 10:58 33.158390 -111.604264 260 15321ft 304kts
04-Feb-18 10:59 33.140140 -111.703986 260 17268ft 314kts
04-Feb-18 11:00 33.121170 -111.806858 260 19048ft 321kts
04-Feb-18 11:01 33.101671 -111.912013 260 20630ft 329kts
04-Feb-18 11:02 33.081772 -112.018721 260 22040ft 336kts
04-Feb-18 11:03 33.061178 -112.128557 260 23314ft 343kts
04-Feb-18 11:04 33.040111 -112.240298 259 24450ft 350kts
04-Feb-18 11:05 33.018471 -112.354459 259 25480ft 356kts
04-Feb-18 11:06 32.996335 -112.470609 259 26168ft 370kts
04-Feb-18 11:07 32.972930 -112.593501 261 26174ft 399kts
04-Feb-18 11:08 32.954131 -112.724365 262 26174ft 428kts
04-Feb-18 11:09 32.931228 -112.867381 262 26175ft 451kts
04-Feb-18 11:10 32.910958 -113.016887 262 26168ft 463kts
04-Feb-18 11:11 32.890777 -113.160679 261 26164ft 468kts
04-Feb-18 11:12 32.869652 -113.311158 261 26161ft 461kts
04-Feb-18 11:13 32.848915 -113.460710 261 26161ft 456kts
04-Feb-18 11:14 32.828298 -113.608296 261 26152ft 453kts
04-Feb-18 11:15 32.807861 -113.750885 261 26132ft 453kts
04-Feb-18 11:16 32.786881 -113.897752 261 26127ft 452kts
04-Feb-18 11:17 32.773369 -114.045506 271 26135ft 449kts
04-Feb-18 11:18 32.772985 -114.193957 270 26127ft 449kts
04-Feb-18 11:19 32.771453 -114.342496 270 26126ft 450kts
04-Feb-18 11:20 32.769723 -114.481892 270 26126ft 450kts
04-Feb-18 11:21 32.767258 -114.627873 270 26126ft 450kts
04-Feb-18 11:22 32.765179 -114.756071 269 26128ft 450kts
04-Feb-18 11:23 32.762939 -114.899985 269 26133ft 450kts
04-Feb-18 11:24 32.760280 -115.040122 270 24307ft 417kts
04-Feb-18 11:25 32.757806 -115.174254 269 24138ft 408kts
04-Feb-18 11:26 32.754334 -115.310848 269 24136ft 423kts
04-Feb-18 11:27 32.751073 -115.429094 269 24129ft 437kts
04-Feb-18 11:28 32.748879 -115.575049 273 24134ft 446kts
04-Feb-18 11:29 32.753981 -115.692202 272 23813ft 386kts
04-Feb-18 11:30 32.757051 -115.813279 272 21618ft 379kts
04-Feb-18 11:31 32.760340 -115.936145 273 19475ft 368kts
04-Feb-18 11:32 32.763453 -116.054532 273 17409ft 359kts
04-Feb-18 11:33 32.766416 -116.171099 273 15383ft 350kts
04-Feb-18 11:34 32.769045 -116.282113 272 13758ft 334kts
04-Feb-18 11:35 32.771624 -116.390209 272 12003ft 324kts
04-Feb-18 11:36 32.773222 -116.488732 269 10566ft 292kts
04-Feb-18 11:37 32.772439 -116.580893 271 10005ft 255kts
04-Feb-18 11:38 32.754392 -116.652740 251 9283ft 235kts
04-Feb-18 11:39 32.733907 -116.720868 251 8044ft 231kts
04-Feb-18 11:40 32.712999 -116.791130 251 6566ft 226kts
04-Feb-18 11:41 32.692730 -116.860583 251 5293ft 223kts
04-Feb-18 11:42 32.673749 -116.929027 263 4338ft 222kts
04-Feb-18 11:43 32.686833 -116.997580 285 3331ft 221kts
04-Feb-18 11:44 32.702406 -117.064064 286 2062ft 198kts
04-Feb-18 11:45 32.715612 -117.116739 286 1179ft 156kts
04-Feb-18 11:46 32.727082 -117.162615 285 404ft 141kts
04-Feb-18 11:47 32.735213 -117.197942 250 22ft 20kts
04-Feb-18 11:48 32.734706 -117.198307 156 23ft 0kts
04-Feb-18 11:49 32.734675 -117.198288 150 23ft 2kts
04-Feb-18 11:50 32.733290 -117.196466 176 25ft 0kts

Navigation Log

Ident Type
1. KPHX Airport
2. GBN Navaid
3. JUDTH Fix
4. MOHAK Fix
5. HOGGZ Fix
6. BZA Navaid
7. HEEDS Fix
8. IPL Navaid
9. KUMBA Fix
10. PILLO Fix
11. BARET Fix
12. IFHEJ Fix
13. SWATT Fix
14. KSAN Airport